createdAt,value
2024-03-02T00:01:38.412Z,7.84
2024-03-02T00:04:08.003Z,7.83
2024-03-02T00:06:36.200Z,7.81
2024-03-02T00:09:04.369Z,7.80
2024-03-02T00:11:31.725Z,7.79
2024-03-02T00:13:58.872Z,7.81
2024-03-02T00:16:31.645Z,7.85
2024-03-02T00:19:03.174Z,7.89
2024-03-02T00:21:32.451Z,7.91
2024-03-02T00:24:01.245Z,7.95
2024-03-02T00:26:28.448Z,7.99
2024-03-02T00:28:58.591Z,7.99
2024-03-02T00:31:26.852Z,7.99
2024-03-02T00:33:54.918Z,8.00
2024-03-02T00:36:28.631Z,8.00
2024-03-02T00:38:56.512Z,8.01
2024-03-02T00:41:29.118Z,7.99
2024-03-02T00:43:59.617Z,7.97
2024-03-02T00:46:33.432Z,7.94
2024-03-02T00:49:02.932Z,7.92
2024-03-02T00:51:36.066Z,7.90
2024-03-02T00:54:07.751Z,7.89
2024-03-02T00:56:36.276Z,7.87
2024-03-02T00:59:03.626Z,7.85
2024-03-02T01:01:30.939Z,7.83
2024-03-02T01:03:58.247Z,7.82
2024-03-02T01:06:25.495Z,7.79
2024-03-02T01:08:53.637Z,7.78
2024-03-02T01:11:24.814Z,7.79
2024-03-02T01:13:53.996Z,7.79
2024-03-02T01:16:21.984Z,7.78
2024-03-02T01:18:49.480Z,7.75
2024-03-02T01:21:16.979Z,7.72
2024-03-02T01:23:44.789Z,7.69
2024-03-02T01:26:11.848Z,7.67
2024-03-02T01:28:38.990Z,7.64
2024-03-02T01:31:06.306Z,7.64
2024-03-02T01:33:33.506Z,7.63
2024-03-02T01:36:00.706Z,7.63
2024-03-02T01:38:29.890Z,7.62
2024-03-02T01:40:58.496Z,7.61
2024-03-02T01:43:25.671Z,7.60
2024-03-02T01:45:52.879Z,7.61
2024-03-02T01:48:20.718Z,7.60
2024-03-02T01:50:48.050Z,7.60
2024-03-02T01:53:15.193Z,7.58
2024-03-02T01:55:42.211Z,7.54
2024-03-02T01:58:09.543Z,7.53
2024-03-02T02:00:36.930Z,7.53
2024-03-02T02:03:04.178Z,7.54
2024-03-02T02:05:32.871Z,7.55
2024-03-02T02:08:00.405Z,7.57
2024-03-02T02:10:27.575Z,7.58
2024-03-02T02:12:55.141Z,7.60
2024-03-02T02:15:32.316Z,7.57
2024-03-02T02:18:00.478Z,7.54
2024-03-02T02:20:28.197Z,7.52
2024-03-02T02:23:02.780Z,7.51
2024-03-02T02:25:30.992Z,7.50
2024-03-02T02:27:59.672Z,7.47
2024-03-02T02:30:29.865Z,7.45
2024-03-02T02:32:57.553Z,7.43
2024-03-02T02:35:27.965Z,7.42
2024-03-02T02:37:57.302Z,7.40
2024-03-02T02:40:24.951Z,7.37
2024-03-02T02:42:55.496Z,7.35
2024-03-02T02:45:23.041Z,7.33
2024-03-02T02:47:51.140Z,7.31
2024-03-02T02:50:18.564Z,7.30
2024-03-02T02:52:45.867Z,7.27
2024-03-02T02:55:14.768Z,7.22
2024-03-02T02:57:44.514Z,7.19
2024-03-02T03:00:18.459Z,7.18
2024-03-02T03:02:49.190Z,7.18
2024-03-02T03:05:17.692Z,7.19
2024-03-02T03:07:46.195Z,7.19
2024-03-02T03:10:14.983Z,7.17
2024-03-02T03:12:44.981Z,7.18
2024-03-02T03:15:15.878Z,7.17
2024-03-02T03:17:43.286Z,7.17
2024-03-02T03:20:11.322Z,7.17
2024-03-02T03:22:39.648Z,7.18
2024-03-02T03:25:09.721Z,7.19
2024-03-02T03:27:37.469Z,7.19
2024-03-02T03:30:05.094Z,7.17
2024-03-02T03:32:32.167Z,7.16
2024-03-02T03:34:59.370Z,7.16
2024-03-02T03:37:28.878Z,7.15
2024-03-02T03:39:56.085Z,7.17
2024-03-02T03:42:23.229Z,7.18
2024-03-02T03:44:50.279Z,7.17
2024-03-02T03:47:17.429Z,7.16
2024-03-02T03:49:44.601Z,7.16
2024-03-02T03:52:11.737Z,7.15
2024-03-02T03:54:39.774Z,7.15
2024-03-02T03:57:07.174Z,7.15
2024-03-02T03:59:34.434Z,7.16
2024-03-02T04:02:01.482Z,7.16
2024-03-02T04:04:28.584Z,7.14
2024-03-02T04:06:56.019Z,7.14
2024-03-02T04:09:23.291Z,7.15
2024-03-02T04:11:50.602Z,7.15
2024-03-02T04:14:17.885Z,7.15
2024-03-02T04:16:44.896Z,7.14
2024-03-02T04:19:12.385Z,7.12
2024-03-02T04:21:39.597Z,7.11
2024-03-02T04:24:06.708Z,7.11
2024-03-02T04:26:33.780Z,7.10
2024-03-02T04:29:01.091Z,7.10
2024-03-02T04:31:28.204Z,7.09
2024-03-02T04:33:55.456Z,7.09
2024-03-02T04:36:22.845Z,7.07
2024-03-02T04:38:50.048Z,7.06
2024-03-02T04:41:17.400Z,7.05
2024-03-02T04:43:44.421Z,7.06
2024-03-02T04:46:12.309Z,7.07
2024-03-02T04:48:39.707Z,7.07
2024-03-02T04:51:06.873Z,7.07
2024-03-02T04:53:33.971Z,7.08
2024-03-02T04:56:19.441Z,7.09
2024-03-02T04:58:46.553Z,7.11
2024-03-02T05:01:13.846Z,7.09
2024-03-02T05:03:41.002Z,7.09
2024-03-02T05:06:08.999Z,7.09
2024-03-02T05:08:36.106Z,7.08
2024-03-02T05:11:23.683Z,7.10
2024-03-02T05:13:50.746Z,7.10
2024-03-02T05:16:17.908Z,7.10
2024-03-02T05:18:45.049Z,7.08
2024-03-02T05:21:12.786Z,7.07
2024-03-02T05:23:40.324Z,7.07
2024-03-02T05:26:07.638Z,7.07
2024-03-02T05:28:34.792Z,7.07
2024-03-02T05:31:02.032Z,7.07
2024-03-02T05:33:30.090Z,7.06
2024-03-02T05:35:57.240Z,7.05
2024-03-02T05:38:24.485Z,7.04
2024-03-02T05:40:51.762Z,7.02
2024-03-02T05:43:19.509Z,7.02
2024-03-02T05:45:46.669Z,7.01
2024-03-02T05:48:14.457Z,7.02
2024-03-02T05:50:41.514Z,6.99
2024-03-02T05:53:09.009Z,6.98
2024-03-02T05:55:36.966Z,7.00
2024-03-02T05:58:06.886Z,7.03
2024-03-02T06:00:34.557Z,7.04
2024-03-02T06:03:01.813Z,7.02
2024-03-02T06:05:29.207Z,7.00
2024-03-02T06:07:56.310Z,6.97
2024-03-02T06:10:23.313Z,6.97
2024-03-02T06:12:50.485Z,6.99
2024-03-02T06:15:18.396Z,7.00
2024-03-02T06:17:45.644Z,6.98
2024-03-02T06:20:12.927Z,6.96
2024-03-02T06:22:40.010Z,6.94
2024-03-02T06:25:07.614Z,6.91
2024-03-02T06:27:34.908Z,6.92
2024-03-02T06:30:02.161Z,6.93
2024-03-02T06:32:29.256Z,6.95
2024-03-02T06:34:56.368Z,6.97
2024-03-02T06:37:23.493Z,6.99
2024-03-02T06:39:50.534Z,7.02
2024-03-02T06:42:17.668Z,7.02
2024-03-02T06:44:45.016Z,7.03
2024-03-02T06:47:12.711Z,7.02
2024-03-02T06:49:39.857Z,7.00
2024-03-02T06:52:07.687Z,7.00
2024-03-02T06:54:36.079Z,6.99
2024-03-02T06:57:03.334Z,6.99
2024-03-02T06:59:30.690Z,7.01
2024-03-02T07:01:58.225Z,7.01
2024-03-02T07:04:25.321Z,7.01
2024-03-02T07:06:52.421Z,7.00
2024-03-02T07:09:23.872Z,6.99
2024-03-02T07:11:52.557Z,6.97
2024-03-02T07:14:19.888Z,6.96
2024-03-02T07:16:47.019Z,6.98
2024-03-02T07:19:14.224Z,6.98
2024-03-02T07:21:41.562Z,6.95
2024-03-02T07:24:10.690Z,6.97
2024-03-02T07:29:07.989Z,7.00
2024-03-02T07:31:35.552Z,7.02
2024-03-02T07:34:03.273Z,7.04
2024-03-02T07:36:30.449Z,7.07
2024-03-02T07:38:57.778Z,7.06
2024-03-02T07:41:25.107Z,7.02
2024-03-02T07:43:52.302Z,7.00
2024-03-02T07:46:19.450Z,7.00
2024-03-02T07:48:46.709Z,7.05
2024-03-02T07:51:15.136Z,7.09
2024-03-02T07:53:42.624Z,7.14
2024-03-02T07:56:09.871Z,7.15
2024-03-02T07:58:38.074Z,7.13
2024-03-02T08:01:05.301Z,7.13
2024-03-02T08:03:33.669Z,7.17
2024-03-02T08:06:01.516Z,7.18
2024-03-02T08:08:28.547Z,7.22
2024-03-02T08:10:56.180Z,7.26
2024-03-02T08:13:24.075Z,7.29
2024-03-02T08:15:51.249Z,7.33
2024-03-02T08:18:18.460Z,7.37
2024-03-02T08:20:46.353Z,7.40
2024-03-02T08:23:13.590Z,7.44
2024-03-02T08:25:40.743Z,7.48
2024-03-02T08:28:07.929Z,7.50
2024-03-02T08:30:35.223Z,7.51
2024-03-02T08:33:02.229Z,7.50
2024-03-02T08:35:29.368Z,7.48
2024-03-02T08:37:56.966Z,7.45
2024-03-02T08:40:24.081Z,7.46
2024-03-02T08:42:51.556Z,7.50
2024-03-02T08:45:21.490Z,7.51
2024-03-02T08:47:49.510Z,7.53
2024-03-02T08:50:17.056Z,7.53
2024-03-02T08:52:44.457Z,7.53
2024-03-02T08:55:12.626Z,7.54
2024-03-02T08:57:39.860Z,7.56
2024-03-02T09:00:09.591Z,7.59
2024-03-02T09:02:36.788Z,7.57
2024-03-02T09:05:04.224Z,7.60
2024-03-02T09:07:31.317Z,7.64
2024-03-02T09:09:58.441Z,7.67
2024-03-02T09:12:25.645Z,7.67
2024-03-02T09:14:52.795Z,7.68
2024-03-02T09:17:20.006Z,7.71
2024-03-02T09:19:47.097Z,7.73
2024-03-02T09:22:14.539Z,7.80
2024-03-02T09:24:41.717Z,7.84
2024-03-02T09:27:08.809Z,7.89
2024-03-02T09:29:35.932Z,7.91
2024-03-02T09:32:03.552Z,7.91
2024-03-02T09:34:30.667Z,7.92
2024-03-02T09:36:57.864Z,7.94
2024-03-02T09:39:26.656Z,7.92
2024-03-02T09:41:54.804Z,7.88
2024-03-02T09:44:23.515Z,7.87
2024-03-02T09:46:50.914Z,7.89
2024-03-02T09:49:18.457Z,7.92
2024-03-02T09:51:50.169Z,7.94
2024-03-02T09:54:22.600Z,7.97
2024-03-02T09:56:52.593Z,7.99
2024-03-02T09:59:21.974Z,8.00
2024-03-02T10:02:02.218Z,7.98
2024-03-02T10:04:33.262Z,8.01
2024-03-02T10:07:20.577Z,8.05
2024-03-02T10:09:49.452Z,8.10
2024-03-02T10:12:18.283Z,8.16
2024-03-02T10:14:46.198Z,8.21
2024-03-02T10:17:14.627Z,8.24
2024-03-02T10:19:41.976Z,8.26
2024-03-02T10:22:10.977Z,8.30
2024-03-02T10:24:43.477Z,8.32
2024-03-02T10:27:16.083Z,8.35
2024-03-02T10:29:43.735Z,8.41
2024-03-02T10:32:14.892Z,8.46
2024-03-02T10:34:43.662Z,8.54
2024-03-02T10:37:12.546Z,8.60
2024-03-02T10:39:41.802Z,8.61
2024-03-02T10:42:10.612Z,8.66
2024-03-02T10:44:37.890Z,8.71
2024-03-02T10:47:06.559Z,8.75
2024-03-02T10:49:34.542Z,8.77
2024-03-02T10:52:02.856Z,8.80
2024-03-02T10:54:38.205Z,8.81
2024-03-02T10:57:06.734Z,8.84
2024-03-02T10:59:36.652Z,8.86
2024-03-02T11:02:06.533Z,8.90
2024-03-02T11:04:36.554Z,8.91
2024-03-02T11:07:10.357Z,8.92
2024-03-02T11:09:43.237Z,8.93
2024-03-02T11:12:19.706Z,8.90
2024-03-02T11:14:47.052Z,8.86
2024-03-02T11:17:19.738Z,8.84
2024-03-02T11:19:48.509Z,8.84
2024-03-02T11:22:16.800Z,8.85
2024-03-02T11:24:52.124Z,8.90
2024-03-02T11:27:47.417Z,8.98
2024-03-02T11:30:33.952Z,9.03
2024-03-02T11:33:12.939Z,9.05
2024-03-02T11:35:49.904Z,9.06
2024-03-02T11:38:18.763Z,9.06
2024-03-02T11:40:46.475Z,9.09
2024-03-02T11:43:13.899Z,9.09
2024-03-02T11:45:45.868Z,9.09
2024-03-02T11:48:16.546Z,9.10
2024-03-02T11:50:48.724Z,9.13
2024-03-02T11:53:16.235Z,9.11
2024-03-02T11:55:48.132Z,9.11
2024-03-02T11:58:22.106Z,9.13
2024-03-02T12:00:52.783Z,9.16
2024-03-02T12:03:23.127Z,9.18
2024-03-02T12:05:56.698Z,9.22
2024-03-02T12:08:24.883Z,9.25
2024-03-02T12:11:04.374Z,9.26
2024-03-02T12:13:32.743Z,9.29
2024-03-02T12:16:00.517Z,9.32
2024-03-02T12:18:28.183Z,9.31
2024-03-02T12:20:59.133Z,9.33
2024-03-02T12:23:26.806Z,9.35
2024-03-02T12:25:54.356Z,9.37
2024-03-02T12:28:21.885Z,9.39
2024-03-02T12:30:50.417Z,9.43
2024-03-02T12:33:18.248Z,9.48
2024-03-02T12:35:45.454Z,9.51
2024-03-02T12:38:12.698Z,9.53
2024-03-02T12:40:39.839Z,9.52
2024-03-02T12:43:08.238Z,9.52
2024-03-02T12:45:38.841Z,9.52
2024-03-02T12:48:06.560Z,9.54
2024-03-02T12:50:35.300Z,9.57
2024-03-02T12:53:03.134Z,9.60
2024-03-02T12:55:31.792Z,9.63
2024-03-02T12:58:00.678Z,9.68
2024-03-02T13:00:28.310Z,9.71
2024-03-02T13:03:03.030Z,9.73
2024-03-02T13:05:34.056Z,9.76
2024-03-02T13:08:04.383Z,9.79
2024-03-02T13:10:32.159Z,9.85
2024-03-02T13:12:59.290Z,9.89
2024-03-02T13:15:29.514Z,9.88
2024-03-02T13:18:01.661Z,9.88
2024-03-02T13:20:33.639Z,9.88
2024-03-02T13:23:00.747Z,9.89
2024-03-02T13:25:29.563Z,9.92
2024-03-02T13:27:58.121Z,9.93
2024-03-02T13:30:25.234Z,9.94
2024-03-02T13:32:52.354Z,9.97
2024-03-02T13:35:19.563Z,10.00
2024-03-02T13:37:46.690Z,10.01
2024-03-02T13:40:19.083Z,10.01
2024-03-02T13:42:46.387Z,10.02
2024-03-02T13:45:14.469Z,10.02
2024-03-02T13:47:41.681Z,10.01
2024-03-02T13:50:08.975Z,10.02
2024-03-02T13:52:36.047Z,10.04
2024-03-02T13:55:03.552Z,10.02
2024-03-02T13:57:31.595Z,9.98
2024-03-02T13:59:58.805Z,9.95
2024-03-02T14:02:27.131Z,9.93
2024-03-02T14:04:54.222Z,9.91
2024-03-02T14:07:21.300Z,9.89
2024-03-02T14:09:48.561Z,9.88
2024-03-02T14:12:15.629Z,9.89
2024-03-02T14:14:43.192Z,9.88
2024-03-02T14:17:15.689Z,9.84
2024-03-02T14:19:42.859Z,9.80
2024-03-02T14:22:09.925Z,9.75
2024-03-02T14:24:37.027Z,9.71
2024-03-02T14:27:14.769Z,9.68
2024-03-02T14:29:47.490Z,9.66
2024-03-02T14:32:15.085Z,9.66
2024-03-02T14:34:42.346Z,9.64
2024-03-02T14:37:09.789Z,9.64
2024-03-02T14:39:37.817Z,9.63
2024-03-02T14:42:05.649Z,9.61
2024-03-02T14:44:32.658Z,9.59
2024-03-02T14:47:00.222Z,9.57
2024-03-02T14:49:28.142Z,9.55
2024-03-02T14:51:55.521Z,9.54
2024-03-02T14:54:23.054Z,9.52
2024-03-02T14:56:50.738Z,9.48
2024-03-02T14:59:18.170Z,9.45
2024-03-02T15:01:46.161Z,9.44
2024-03-02T15:04:13.603Z,9.41
2024-03-02T15:06:41.317Z,9.38
2024-03-02T15:09:09.271Z,9.37
2024-03-02T15:11:36.459Z,9.36
2024-03-02T15:14:03.893Z,9.34
2024-03-02T15:16:31.242Z,9.31
2024-03-02T15:18:58.394Z,9.30
2024-03-02T15:21:25.476Z,9.28
2024-03-02T15:23:52.721Z,9.25
2024-03-02T15:26:19.786Z,9.25
2024-03-02T15:28:46.939Z,9.24
2024-03-02T15:31:14.077Z,9.23
2024-03-02T15:33:41.352Z,9.22
2024-03-02T15:36:08.703Z,9.20
2024-03-02T15:38:41.149Z,9.17
2024-03-02T15:41:09.728Z,9.14
2024-03-02T15:43:40.461Z,9.13
2024-03-02T15:46:08.560Z,9.12
2024-03-02T15:48:36.407Z,9.10
2024-03-02T15:51:06.780Z,9.08
2024-03-02T15:53:34.403Z,9.06
2024-03-02T15:56:01.917Z,9.03
2024-03-02T15:58:29.110Z,9.02
2024-03-02T16:00:57.152Z,9.01
2024-03-02T16:03:24.342Z,9.00
2024-03-02T16:05:51.575Z,9.00
2024-03-02T16:08:18.713Z,8.99
2024-03-02T16:10:45.694Z,8.98
2024-03-02T16:13:12.763Z,8.97
2024-03-02T16:15:39.801Z,8.97
2024-03-02T16:18:07.182Z,9.00
2024-03-02T16:20:34.891Z,9.03
2024-03-02T16:23:02.037Z,9.05
2024-03-02T16:25:30.106Z,9.08
2024-03-02T16:27:57.205Z,9.10
2024-03-02T16:30:26.450Z,9.10
2024-03-02T16:32:53.582Z,9.09
2024-03-02T16:35:20.657Z,9.07
2024-03-02T16:37:47.756Z,9.05
2024-03-02T16:40:15.191Z,9.02
2024-03-02T16:42:43.136Z,9.00
2024-03-02T16:45:10.569Z,8.97
2024-03-02T16:47:37.796Z,8.96
2024-03-02T16:50:08.022Z,8.95
2024-03-02T16:52:35.496Z,8.92
2024-03-02T16:55:04.911Z,8.91
2024-03-02T16:57:32.893Z,8.88
2024-03-02T17:00:00.383Z,8.85
2024-03-02T17:02:28.322Z,8.84
2024-03-02T17:04:55.444Z,8.82
2024-03-02T17:07:25.566Z,8.81
2024-03-02T17:09:54.518Z,8.79
2024-03-02T17:12:22.425Z,8.78
2024-03-02T17:14:49.681Z,8.76
2024-03-02T17:17:18.734Z,8.75
2024-03-02T17:19:45.770Z,8.72
2024-03-02T17:22:13.002Z,8.69
2024-03-02T17:24:40.159Z,8.66
2024-03-02T17:27:07.263Z,8.64
2024-03-02T17:29:35.840Z,8.62
2024-03-02T17:32:03.123Z,8.62
2024-03-02T17:34:30.802Z,8.62
2024-03-02T17:36:57.936Z,8.59
2024-03-02T17:39:25.022Z,8.59
2024-03-02T17:41:52.548Z,8.58
2024-03-02T17:44:19.992Z,8.56
2024-03-02T17:46:47.271Z,8.56
2024-03-02T17:49:16.421Z,8.54
2024-03-02T17:51:44.685Z,8.54
2024-03-02T17:54:11.799Z,8.53
2024-03-02T17:56:38.836Z,8.50
2024-03-02T17:59:06.156Z,8.46
2024-03-02T18:01:33.443Z,8.45
2024-03-02T18:04:00.675Z,8.43
2024-03-02T18:06:27.803Z,8.42
2024-03-02T18:08:54.953Z,8.40
2024-03-02T18:11:25.585Z,8.39
2024-03-02T18:13:52.888Z,8.36
2024-03-02T18:16:20.463Z,8.34
2024-03-02T18:18:48.139Z,8.33
2024-03-02T18:21:15.709Z,8.31
2024-03-02T18:23:43.369Z,8.30
2024-03-02T18:26:10.513Z,8.30
2024-03-02T18:28:39.226Z,8.29
2024-03-02T18:31:08.009Z,8.30
2024-03-02T18:33:35.318Z,8.28
2024-03-02T18:36:02.469Z,8.25
2024-03-02T18:38:29.694Z,8.24
2024-03-02T18:40:56.898Z,8.22
2024-03-02T18:43:23.953Z,8.22
2024-03-02T18:45:51.089Z,8.20
2024-03-02T18:48:18.405Z,8.18
2024-03-02T18:50:45.852Z,8.15
2024-03-02T18:53:14.010Z,8.12
2024-03-02T18:55:41.115Z,8.11
2024-03-02T18:58:08.330Z,8.12
2024-03-02T19:00:35.631Z,8.12
2024-03-02T19:03:02.879Z,8.12
2024-03-02T19:05:31.200Z,8.12
2024-03-02T19:07:58.439Z,8.09
2024-03-02T19:10:25.746Z,8.07
2024-03-02T19:12:52.871Z,8.04
2024-03-02T19:15:20.026Z,8.04
2024-03-02T19:17:47.345Z,8.04
2024-03-02T19:20:15.572Z,8.04
2024-03-02T19:22:43.416Z,8.03
2024-03-02T19:25:12.766Z,8.01
2024-03-02T19:27:40.130Z,7.99
2024-03-02T19:30:09.271Z,7.97
2024-03-02T19:32:36.638Z,7.93
2024-03-02T19:35:04.526Z,7.93
2024-03-02T19:37:31.962Z,7.93
2024-03-02T19:39:59.086Z,7.92
2024-03-02T19:42:26.208Z,7.90
2024-03-02T19:44:53.236Z,7.86
2024-03-02T19:47:20.750Z,7.84
2024-03-02T19:49:48.067Z,7.83
2024-03-02T19:52:16.171Z,7.82
2024-03-02T19:54:43.438Z,7.81
2024-03-02T19:57:10.583Z,7.81
2024-03-02T19:59:37.727Z,7.80
2024-03-02T20:02:11.512Z,7.79
2024-03-02T20:04:40.027Z,7.76
2024-03-02T20:07:07.203Z,7.73
2024-03-02T20:09:34.632Z,7.73
2024-03-02T20:12:01.983Z,7.72
2024-03-02T20:14:29.064Z,7.72
2024-03-02T20:16:56.545Z,7.72
2024-03-02T20:19:24.616Z,7.70
2024-03-02T20:21:51.785Z,7.69
2024-03-02T20:24:19.522Z,7.68
2024-03-02T20:26:46.633Z,7.67
2024-03-02T20:29:13.683Z,7.68
2024-03-02T20:31:42.893Z,7.67
2024-03-02T20:34:13.863Z,7.67
2024-03-02T20:36:43.239Z,7.67
2024-03-02T20:39:12.030Z,7.67
2024-03-02T20:41:39.188Z,7.65
2024-03-02T20:44:06.243Z,7.64
2024-03-02T20:46:33.462Z,7.63
2024-03-02T20:49:00.732Z,7.63
2024-03-02T20:51:30.931Z,7.64
2024-03-02T20:53:58.834Z,7.65
2024-03-02T20:56:27.534Z,7.64
2024-03-02T20:58:54.735Z,7.63
2024-03-02T21:01:23.166Z,7.63
2024-03-02T21:03:50.606Z,7.62
2024-03-02T21:06:18.230Z,7.64
2024-03-02T21:08:45.373Z,7.65
2024-03-02T21:11:15.259Z,7.66
2024-03-02T21:13:42.570Z,7.67
2024-03-02T21:16:09.602Z,7.67
2024-03-02T21:18:37.130Z,7.67
2024-03-02T21:21:06.973Z,7.66
2024-03-02T21:23:35.726Z,7.66
2024-03-02T21:26:04.683Z,7.65
2024-03-02T21:28:32.017Z,7.64
2024-03-02T21:30:59.121Z,7.64
2024-03-02T21:33:29.465Z,7.64
2024-03-02T21:35:56.596Z,7.61
2024-03-02T21:38:25.070Z,7.59
2024-03-02T21:40:52.250Z,7.56
2024-03-02T21:43:20.038Z,7.55
2024-03-02T21:45:47.383Z,7.55
2024-03-02T21:48:14.579Z,7.55
2024-03-02T21:50:42.586Z,7.55
2024-03-02T21:53:09.669Z,7.55
2024-03-02T21:55:37.000Z,7.54
2024-03-02T21:58:05.035Z,7.53
2024-03-02T22:00:32.368Z,7.52
2024-03-02T22:02:59.752Z,7.52
2024-03-02T22:05:27.470Z,7.52
2024-03-02T22:07:56.062Z,7.52
2024-03-02T22:10:23.306Z,7.51
2024-03-02T22:12:50.468Z,7.49
2024-03-02T22:15:17.553Z,7.48
2024-03-02T22:17:44.727Z,7.48
2024-03-02T22:20:12.428Z,7.49
2024-03-02T22:22:41.849Z,7.49
2024-03-02T22:25:09.643Z,7.48
2024-03-02T22:27:41.694Z,7.49
2024-03-02T22:30:09.920Z,7.49
2024-03-02T22:32:37.410Z,7.49
2024-03-02T22:35:05.212Z,7.49
2024-03-02T22:37:32.250Z,7.50
2024-03-02T22:39:59.322Z,7.50
2024-03-02T22:42:26.406Z,7.49
2024-03-02T22:44:54.211Z,7.49
2024-03-02T22:47:21.360Z,7.49
2024-03-02T22:49:48.762Z,7.47
2024-03-02T22:52:15.842Z,7.47
2024-03-02T22:54:43.005Z,7.47
2024-03-02T22:57:18.155Z,7.49
2024-03-02T22:59:56.094Z,7.49
2024-03-02T23:02:25.072Z,7.50
2024-03-02T23:04:52.624Z,7.52
2024-03-02T23:07:24.166Z,7.53
2024-03-02T23:09:51.506Z,7.51
2024-03-02T23:12:18.729Z,7.51
2024-03-02T23:14:46.018Z,7.50
2024-03-02T23:17:13.155Z,7.50
2024-03-02T23:19:40.211Z,7.51
2024-03-02T23:22:07.617Z,7.51
2024-03-02T23:24:34.856Z,7.52
2024-03-02T23:27:01.936Z,7.52
2024-03-02T23:29:28.997Z,7.51
2024-03-02T23:31:56.112Z,7.49
2024-03-02T23:34:23.243Z,7.49
2024-03-02T23:36:50.628Z,7.47
2024-03-02T23:39:38.223Z,7.47
2024-03-02T23:42:06.489Z,7.47
2024-03-02T23:44:33.596Z,7.48
2024-03-02T23:47:00.777Z,7.49
2024-03-02T23:49:27.918Z,7.49
2024-03-02T23:51:55.398Z,7.48
2024-03-02T23:54:22.540Z,7.47
2024-03-02T23:56:49.634Z,7.49
2024-03-02T23:59:16.755Z,7.50
